Cànoves i Samalús





Hora UTC 20:10
Temperatura 2.6 ºC
Humitat 88.0 %
Pressió 999.6 hPa
Pluja 0.0 mm
Velocitat vent 3.0 km/h
Direcció vent NNW
Radiació solar 0.1 W/m²

Dades diàries 2021-11-27



Hora UTC (hivern +1h; estiu +2h)
Temperatura (ºC) Humitat (%) Pressió (hPa) Velocitat vent (km/h) Precipitació (mm) Radiació solar (W/m²)
Hora UTC Aire Humitat Pressió Vel. Dir. Vel. Max Dir. Intent. màx 5 min. Rad. Sol.
00:05 2.8 94.8 1000.9 4.0 SSE 4.0 S 0.0 0.1
00:10 2.7 94.7 1000.8 2.8 NW 5.6 SSE 0.0 0.1
00:15 2.7 94.8 1000.7 1.8 NNW 3.5 NNW 0.0 0.1
00:20 2.5 94.5 1000.7 3.1 SSW 4.9 SSW 0.0 0.1
00:25 2.5 95.1 1000.6 2.7 S 6.7 SW 0.0 0.1
00:30 2.4 94.3 1000.6 2.3 ESE 6.0 ESE 0.0 0.1
00:35 2.2 94.5 1000.5 0.9 SW 3.2 ENE 0.0 0.1
00:40 2.3 95.3 1000.6 3.2 WSW 7.8 WSW 0.0 0.1
00:45 2.5 95.8 1000.5 2.1 WSW 7.1 W 0.0 0.1
00:50 2.6 95.6 1000.4 5.7 NW 8.8 W 0.0 0.1
00:55 2.6 95.1 1000.3 4.7 NNW 8.5 NNW 0.0 0.1
01:00 2.5 94.6 1000.1 1.7 N 4.6 N 0.0 0.1
01:05 2.2 94.0 1000.1 1.2 SW 3.2 SSW 0.0 0.1
01:10 2.1 94.8 1000.1 3.6 SW 9.5 SSW 0.0 0.1
01:15 2.3 95.2 999.9 2.7 SE 6.7 SSE 0.0 0.1
01:20 2.3 94.8 999.9 3.6 N 5.3 NW 0.0 0.1
01:25 2.3 95.2 999.8 2.0 N 5.3 NNW 0.0 0.1
01:30 2.2 94.6 999.8 0.2 WNW 1.8 NW 0.0 0.1
01:35 2.0 94.8 999.8 2.7 NW 5.3 NNW 0.0 0.1
01:40 2.0 94.9 999.8 1.2 S 4.9 SSE 0.0 0.1
01:45 1.8 94.5 999.7 2.5 WNW 6.7 NNW 0.0 0.1
01:50 1.9 95.4 999.6 4.5 W 12.0 WSW 0.0 0.1
01:55 2.6 93.5 999.4 5.2 WSW 12.4 WSW 0.0 0.1
02:00 2.7 90.0 999.3 1.6 N 6.0 NW 0.0 0.1
02:05 2.3 90.9 999.2 2.2 NNW 4.9 NNW 0.0 0.1
02:10 2.2 92.2 999.2 2.3 NNW 6.4 NNW 0.0 0.1
02:15 1.9 92.2 999.1 1.9 ESE 8.1 NW 0.0 0.1
02:20 2.6 89.5 999.0 3.4 S 8.8 WSW 0.0 0.1
02:25 2.8 87.3 999.0 6.1 ESE 8.8 ESE 0.0 0.1
02:30 2.5 89.3 999.0 2.1 E 6.0 ESE 0.0 0.1
02:35 2.4 90.1 998.8 3.4 ESE 6.0 ESE 0.0 0.1
02:40 2.2 90.2 998.7 0.3 ESE 2.5 E 0.0 0.1
02:45 2.1 90.9 998.4 1.1 NE 2.8 NNE 0.0 0.1
02:50 2.0 91.4 998.3 0.5 NNW 3.2 W 0.0 0.1
02:55 2.1 91.2 998.2 5.6 SSW 10.6 SSW 0.0 0.1
03:00 3.4 83.5 998.1 5.8 S 12.0 SSW 0.0 0.2
03:05 3.8 81.2 998.0 6.3 SSE 10.2 S 0.0 0.1
03:10 3.1 85.2 997.9 5.7 ESE 10.2 E 0.0 0.1
03:15 2.8 86.7 998.0 2.0 SE 7.1 E 0.0 0.1
03:20 2.6 87.1 997.8 3.6 SW 15.9 SSW 0.0 0.1
03:25 3.2 83.9 997.7 9.8 SW 20.1 SW 0.0 0.1
03:30 3.7 80.6 997.6 5.4 WNW 14.8 WSW 0.0 0.1
03:35 3.5 82.9 997.6 4.4 N 8.1 N 0.0 0.1
03:40 3.0 84.6 997.5 2.2 NNW 7.1 N 0.0 0.1
03:45 2.6 86.1 997.4 2.8 NNW 7.1 N 0.0 0.1
03:50 2.4 87.8 997.3 4.8 NNW 10.9 NNW 0.0 0.1
03:55 2.3 88.6 997.3 4.8 N 7.4 N 0.0 0.1
04:00 2.2 88.9 997.2 3.0 N 7.8 0.0 0.1
04:05 2.0 89.0 997.3 3.5 N 9.2 N 0.0 0.1
04:10 2.0 89.1 997.2 3.2 N 8.8 NNW 0.0 0.1
04:15 2.3 88.4 997.1 6.6 WNW 14.8 SW 0.0 0.1
04:20 2.8 84.7 997.1 6.8 WSW 16.9 WSW 0.0 0.1
04:25 3.4 81.4 997.1 5.3 W 12.0 WSW 0.0 0.1
04:30 3.6 79.6 997.1 11.1 SW 23.6 S 0.0 0.1
04:35 4.4 75.7 997.1 12.7 SSW 23.3 SSW 0.0 0.1
04:40 4.4 76.0 997.1 10.8 SSW 21.5 SSW 0.0 0.1
04:45 4.4 75.8 997.0 12.2 SW 21.2 WSW 0.0 0.1
04:50 4.4 75.1 996.9 8.1 SSW 18.4 SSW 0.0 0.1
04:55 4.5 74.7 996.8 5.1 SW 14.5 SW 0.0 0.1
05:00 4.1 76.7 996.7 4.1 W 14.8 WSW 0.0 0.1
05:05 3.7 79.2 996.6 2.6 N 10.9 NNW 0.0 0.1
05:10 3.2 81.4 996.5 4.6 N 9.9 NNW 0.0 0.1
05:15 2.8 82.8 996.5 2.1 NW 5.6 NW 0.0 0.1
05:20 2.6 83.4 996.4 4.0 SSE 17.3 SW 0.0 0.1
05:25 3.9 75.7 996.4 7.8 W 18.7 W 0.0 0.1
05:30 5.0 71.5 996.4 3.4 NW 8.5 SSW 0.0 0.1
05:35 4.1 76.6 996.3 3.4 ENE 9.2 S 0.0 0.1
05:40 3.9 77.0 996.2 5.1 S 12.7 WNW 0.0 0.1
05:45 4.7 74.5 996.3 6.2 SSE 13.1 SSW 0.0 0.1
05:50 4.9 74.0 996.4 2.7 SE 7.8 SE 0.0 0.1
05:55 5.1 72.7 996.2 8.8 WNW 21.9 WNW 0.0 0.1
06:00 5.9 69.6 996.3 10.5 W 24.0 W 0.0 0.1
06:05 6.0 69.7 996.2 6.8 WSW 17.3 NW 0.0 0.1
06:10 5.8 71.0 996.0 4.4 SE 19.4 ENE 0.0 0.1
06:15 6.0 70.8 996.0 8.8 NW 24.3 NNW 0.0 0.1
06:20 6.3 70.5 995.9 14.3 WNW 36.7 WNW 0.0 0.1
06:25 6.4 70.4 995.8 9.3 NW 22.6 NW 0.0 0.1
06:30 6.5 70.1 995.8 16.0 NW 31.4 NNW 0.0 0.2
06:35 6.7 69.3 995.8 19.7 WNW 38.1 NW 0.0 0.3
06:40 6.8 69.1 995.7 17.7 WNW 32.5 NNW 0.0 0.8
06:45 6.9 68.8 995.7 17.4 NW 43.4 NW 0.0 1.5
06:50 7.1 68.5 995.6 19.6 NW 56.1 NW 0.0 2.8
06:55 7.2 68.4 995.7 16.2 NW 33.2 NW 0.0 4.0
07:00 7.2 68.6 995.7 17.0 NW 38.1 NW 0.0 5.2
07:05 7.2 68.9 995.7 13.6 WNW 31.8 NW 0.0 7.3
07:10 7.0 69.5 995.8 12.4 WNW 30.7 WNW 0.0 12.6
07:15 7.1 69.6 995.7 13.8 WNW 29.3 WSW 0.0 38.0
07:20 7.2 69.6 995.8 12.9 WNW 33.5 NW 0.0 55.4
07:25 7.3 69.8 995.9 12.2 W 29.3 NW 0.0 61.7
07:30 7.3 69.7 995.9 11.2 W 35.3 WNW 0.0 76.6
07:35 7.5 69.6 995.8 15.9 W 40.2 WNW 0.0 90.6
07:40 7.6 69.4 995.7 11.3 WNW 35.3 WNW 0.0 102.4
07:45 7.7 69.5 995.6 12.4 WNW 30.3 NW 0.0 114.1
07:50 7.7 69.4 995.5 17.7 WNW 43.0 WNW 0.0 127.2
07:55 7.8 69.6 995.4 17.8 NW 34.2 WNW 0.0 122.5
08:00 7.7 70.3 995.4 17.6 NW 37.0 NW 0.0 145.5
08:05 7.8 70.5 995.6 13.8 NW 34.2 NNW 0.0 127.6
08:10 7.8 70.4 995.7 16.0 NW 49.4 W 0.0 132.7
08:15 7.8 70.5 995.8 13.3 NW 33.5 NNW 0.0 149.7
08:20 7.7 71.0 995.9 8.7 NW 31.8 SW 0.0 98.3
08:25 7.7 71.4 996.0 9.8 NW 25.1 WNW 0.0 125.9
08:30 7.7 71.4 996.2 11.2 WNW 31.8 NW 0.0 143.1
08:35 7.8 71.4 996.2 8.6 W 27.5 NW 0.0 139.9
08:40 7.9 70.6 996.3 10.9 WSW 28.9 WSW 0.0 267.6
08:45 8.2 70.2 996.4 8.1 S 17.6 SW 0.0 283.5
08:50 8.1 70.0 996.6 7.8 SSW 15.9 W 0.0 192.6
08:55 8.2 71.7 996.7 9.9 SSE 19.4 S 0.0 280.3
09:00 8.3 70.5 996.9 7.7 WSW 18.7 SSW 0.0 302.5
09:05 8.4 69.6 997.0 7.4 SW 15.9 WSW 0.0 408.7
09:10 8.7 69.3 997.1 8.2 WSW 24.7 SW 0.0 419.2
09:15 8.8 69.0 997.1 9.5 WNW 24.0 NW 0.0 387.6
09:20 8.7 68.7 997.1 12.5 WNW 28.2 NNW 0.0 286.3
09:25 8.6 68.9 997.0 13.4 NW 28.6 NW 0.0 281.8
09:30 8.7 69.2 997.0 9.3 WNW 20.1 NNW 0.0 281.9
09:35 8.8 68.6 997.0 6.3 WSW 14.8 WSW 0.0 359.1
09:40 9.1 68.3 997.0 5.2 SSW 12.4 SSW 0.0 368.6
09:45 9.1 67.2 997.0 8.3 SW 20.8 SW 0.0 377.7
09:50 8.9 67.7 997.0 9.3 SW 30.0 NW 0.0 381.6
09:55 9.0 66.7 996.9 11.2 W 28.9 WSW 0.0 388.8
10:00 9.2 66.6 996.8 8.2 NW 24.0 NNW 0.0 395.1
10:05 9.3 65.8 996.8 8.9 NW 36.0 WSW 0.0 392.2
10:10 9.5 65.1 996.8 8.4 WNW 20.5 NW 0.0 404.7
10:15 9.6 64.0 996.7 11.3 WNW 32.5 WNW 0.0 418.0
10:20 9.5 64.4 996.7 9.0 W 27.5 WNW 0.0 425.6
10:25 9.5 64.9 996.7 11.1 W 33.2 WSW 0.0 432.4
10:30 9.6 65.0 996.7 11.9 W 32.1 SW 0.0 433.9
10:35 9.5 64.8 996.7 10.0 W 31.1 W 0.0 411.5
10:40 9.6 65.4 996.7 8.0 W 20.1 WNW 0.0 428.0
10:45 9.8 64.8 996.7 6.2 W 20.8 WNW 0.0 450.7
10:50 10.0 63.6 996.7 8.4 WNW 23.3 WSW 0.0 445.0
10:55 10.1 64.6 996.7 7.5 W 24.3 SSW 0.0 383.1
11:00 10.0 63.4 996.8 5.9 WSW 18.4 SW 0.0 367.2
11:05 9.8 64.5 996.8 8.1 WSW 31.8 SSW 0.0 369.2
11:10 9.7 64.3 996.9 7.4 W 20.8 W 0.0 284.3
11:15 9.5 64.7 996.7 10.0 W 25.4 NW 0.0 358.4
11:20 9.7 65.0 996.6 6.7 WNW 15.5 WSW 0.0 311.4
11:25 9.7 64.0 996.5 10.0 W 19.4 SSW 0.0 351.1
11:30 9.6 64.4 996.4 7.6 WNW 21.5 WNW 0.0 375.1
11:35 9.8 64.0 996.3 6.4 WNW 18.0 NNW 0.0 308.4
11:40 9.9 63.7 996.4 7.6 NW 19.8 NW 0.0 357.7
11:45 10.0 63.0 996.3 11.0 WSW 31.4 WSW 0.0 441.9
11:50 10.1 63.1 996.2 5.9 W 21.2 NW 0.0 476.9
11:55 10.4 62.1 996.2 8.1 W 25.1 WSW 0.0 497.9
12:00 10.6 61.3 996.2 5.5 W 18.0 WNW 0.0 540.3
12:05 11.0 60.9 996.1 6.1 WSW 18.7 NW 0.0 555.9
12:10 11.2 60.2 996.0 8.8 NW 28.6 NW 0.0 543.3
12:15 11.3 59.8 996.0 6.4 WNW 18.0 NW 0.0 257.3
12:20 10.8 61.0 996.0 9.8 WNW 27.9 WNW 0.0 371.5
12:25 11.0 60.7 995.9 7.0 NNW 17.6 NNW 0.0 515.7
12:30 11.3 59.3 995.8 6.7 NW 20.8 NW 0.0 480.7
12:35 11.5 58.8 995.9 4.3 NNW 13.1 N 0.0 375.6
12:40 11.5 58.5 995.9 6.7 NNW 13.8 NNW 0.0 383.3
12:45 11.6 58.0 995.9 9.1 N 19.1 NNW 0.0 402.6
12:50 11.3 57.3 995.8 11.3 NW 26.5 NNW 0.0 382.3
12:55 11.2 58.1 995.9 9.0 NNW 17.6 NNE 0.0 368.9
13:00 11.2 58.3 995.8 9.8 NW 19.1 WNW 0.0 398.6
13:05 11.4 57.3 995.8 9.8 NW 18.0 WNW 0.0 410.7
13:10 11.3 57.3 995.7 11.1 NW 25.8 NW 0.0 327.9
13:15 11.3 57.4 995.6 10.3 NW 18.4 NW 0.0 416.8
13:20 11.6 54.9 995.6 10.3 NNW 18.0 NW 0.0 475.4
13:25 11.9 54.7 995.6 6.5 NW 16.2 ENE 0.0 329.0
13:30 12.1 52.7 995.7 6.6 ENE 13.8 ESE 0.0 151.3
13:35 11.6 54.1 995.9 4.9 ENE 14.5 E 0.0 87.6
13:40 11.2 55.7 996.0 6.5 E 13.1 ENE 0.0 85.0
13:45 11.0 58.5 996.2 5.5 E 14.5 E 0.0 105.0
13:50 10.8 59.0 996.1 6.2 ENE 14.1 ENE 0.0 128.9
13:55 10.7 59.8 996.1 5.3 ENE 13.8 E 0.0 154.7
14:00 10.8 60.1 996.2 4.8 ENE 13.1 NE 0.0 146.3
14:05 10.7 59.8 996.2 6.5 NE 15.5 ENE 0.0 175.7
14:10 10.7 60.0 996.2 5.6 NE 11.6 NE 0.0 126.9
14:15 10.6 60.6 996.3 3.4 NE 9.2 NNE 0.0 108.6
14:20 10.5 62.6 996.4 7.1 ENE 13.4 E 0.0 116.7
14:25 10.4 64.7 996.5 6.1 ESE 11.3 E 0.0 120.9
14:30 10.3 65.1 996.6 5.3 ESE 10.9 ESE 0.0 115.2
14:35 10.2 64.9 996.7 4.9 ESE 7.4 ESE 0.0 100.0
14:40 10.2 65.2 996.8 4.5 ESE 7.8 E 0.0 88.7
14:45 10.1 65.3 996.9 4.3 ESE 7.4 SE 0.0 86.3
14:50 10.1 64.9 996.9 3.7 ESE 6.0 ESE 0.0 96.1
14:55 10.0 64.0 996.9 5.8 E 9.5 E 0.0 90.4
15:00 10.0 65.3 997.0 4.1 E 9.5 E 0.0 79.7
15:05 9.9 65.8 997.1 3.4 ESE 6.7 E 0.0 73.7
15:10 9.8 67.0 997.1 3.4 SE 5.6 SE 0.0 67.5
15:15 9.7 67.2 997.2 2.5 SSE 3.9 SSE 0.0 58.2
15:20 9.6 67.7 997.2 2.3 SSE 3.5 SE 0.0 51.0
15:25 9.5 67.3 997.2 2.2 SSE 4.2 SE 0.0 43.5
15:30 9.3 69.0 997.4 2.0 SW 3.5 SW 0.0 37.5
15:35 9.2 70.5 997.4 2.1 WSW 3.5 WSW 0.0 31.0
15:40 9.0 72.2 997.5 2.9 W 4.6 WSW 0.0 24.9
15:45 8.7 73.1 997.5 2.6 WNW 3.9 WNW 0.0 21.7
15:50 8.6 74.6 997.5 2.6 NW 3.9 WNW 0.0 18.1
15:55 8.4 76.2 997.5 1.8 NNW 3.2 NNW 0.0 14.7
16:00 8.3 78.0 997.6 2.8 N 3.9 NNE 0.0 11.8
16:05 8.0 79.3 997.7 2.3 NW 3.2 NNW 0.0 8.5
16:10 7.8 80.1 997.7 3.1 NW 5.3 NNW 0.0 5.6
16:15 7.6 80.2 997.7 4.8 NNW 8.5 NW 0.0 4.5
16:20 7.6 80.2 997.8 4.1 NNW 6.7 NW 0.0 4.8
16:25 7.5 79.7 997.7 3.4 NNW 4.2 NNW 0.0 3.6
16:30 7.5 79.6 997.8 3.0 NNW 5.3 NNW 0.0 2.6
16:35 7.3 79.4 997.9 3.3 NW 4.9 NNW 0.0 0.7
16:40 7.2 79.2 997.9 3.4 NW 5.6 NW 0.0 0.4
16:45 7.0 80.1 997.9 2.2 NNW 3.9 NW 0.0 0.2
16:50 6.9 80.9 998.0 2.0 NNW 3.2 NNW 0.0 0.1
16:55 6.7 81.3 997.9 1.0 NNW 2.1 NNW 0.0 0.1
17:00 6.6 82.2 998.0 1.2 N 3.2 N 0.0 0.1
17:05 6.4 82.3 998.1 0.0 NNW 1.1 NNW 0.0 0.1
17:10 6.2 82.0 998.2 0.1 S 1.8 S 0.0 0.1
17:15 6.1 83.0 998.2 0.4 SSW 3.2 S 0.0 0.1
17:20 6.0 84.3 998.2 1.8 W 7.4 W 0.0 0.1
17:25 6.2 81.7 998.2 3.0 W 5.3 W 0.0 0.1
17:30 6.2 82.6 998.3 2.2 NNW 4.6 N 0.0 0.1
17:35 6.1 83.4 998.3 0.7 NNW 3.9 NNE 0.0 0.1
17:40 5.9 84.0 998.3 0.0 NW 1.1 WNW 0.0 0.1
17:45 5.7 85.3 998.4 1.5 NW 3.2 NNE 0.0 0.1
17:50 5.6 85.5 998.4 0.6 SE 2.5 SE 0.0 0.1
17:55 5.5 85.7 998.5 0.8 SSW 3.2 S 0.0 0.1
18:00 5.4 85.0 998.6 0.8 S 2.5 S 0.0 0.1
18:05 5.4 86.1 998.4 2.6 N 4.6 NNE 0.0 0.1
18:10 5.2 85.8 998.6 3.4 W 4.9 W 0.0 0.1
18:15 5.2 86.2 998.5 5.9 NNW 7.4 NNW 0.0 0.1
18:20 5.1 85.8 998.5 5.3 WNW 11.3 W 0.0 0.1
18:25 5.4 81.4 998.7 5.7 W 9.9 W 0.0 0.1
18:30 5.7 80.6 998.9 0.9 W 2.5 WSW 0.0 0.1
18:35 5.3 82.8 999.0 2.3 ESE 4.9 ENE 0.0 0.1
18:40 5.0 83.8 999.0 4.0 NE 6.4 NE 0.0 0.1
18:45 4.7 85.6 999.0 3.1 NW 6.4 NW 0.0 0.1
18:50 4.4 86.0 999.1 2.4 W 3.5 W 0.0 0.1
18:55 4.3 86.4 999.1 2.1 NW 6.0 NNW 0.0 0.1
19:00 4.2 87.5 999.1 4.6 NW 8.5 N 0.0 0.1
19:05 4.1 87.3 999.1 1.6 NNW 3.5 NW 0.0 0.1
19:10 3.8 87.5 999.2 3.1 NW 4.2 NW 0.0 0.2
19:15 3.7 87.8 999.2 3.4 WNW 6.7 WNW 0.0 0.1
19:20 3.8 86.6 999.2 4.1 NW 7.8 W 0.0 0.1
19:25 3.9 86.5 999.2 5.5 NNW 7.8 NNW 0.0 0.1
19:30 3.6 87.0 999.3 5.4 NNW 9.2 NNW 0.0 0.1
19:35 3.3 86.6 999.3 3.5 N 6.0 N 0.0 0.1
19:40 3.0 86.8 999.3 2.0 NNW 4.9 N 0.0 0.1
19:45 2.8 87.6 999.3 2.9 N 7.8 N 0.0 0.1
19:50 2.8 89.0 999.5 4.2 N 8.5 N 0.0 0.1
19:55 2.6 88.2 999.5 6.7 WNW 9.9 WNW 0.0 0.1
20:00 2.7 87.2 999.5 3.1 WNW 5.6 WNW 0.0 0.1
20:05 2.7 88.2 999.6 3.4 NNW 5.6 N 0.0 0.1
20:10 2.6 88.0 999.6 3.0 NNW 5.3 NNW 0.0 0.1
Màxima 12.2 95.8 1000.9 19.7 WNW 56.1 NW 0.0 555.9
Mínima 1.7 52.7 995.4
Total 0.0